Time;durP1;ratioP1;P1;durP2;ratioP2;P2;SDS_P1;SDS_P2;PMS_P1;PMS_P2;Temp;Humidity;BMP_temperature;BMP_pressure;BME280_temperature;BME280_humidity;BME280_pressure;Samples;Min_cycle;Max_cycle;Signal;HPM_P1;HPM_P2
2023/03/29 00:00:21;;;;;;;1.40;1.30;;;16.20;60.00;17.10;100962.00;;;;5009116;28;20183;-46
2023/03/29 00:02:47;;;;;;;1.70;1.60;;;16.20;60.00;17.10;100957.00;;;;5009294;28;20176;-45
2023/03/29 00:05:17;;;;;;;1.50;1.40;;;16.20;60.00;17.10;100950.00;;;;5008741;28;20186;-44
2023/03/29 00:07:43;;;;;;;1.63;1.53;;;16.20;60.00;17.10;100948.00;;;;5008904;28;20194;-45
2023/03/29 00:10:10;;;;;;;1.43;1.33;;;16.20;59.90;17.20;100954.00;;;;5008661;28;20301;-46
2023/03/29 00:12:37;;;;;;;1.40;1.30;;;16.20;60.00;17.10;100952.00;;;;5008432;28;20732;-45
2023/03/29 00:15:05;;;;;;;1.30;1.30;;;16.20;60.00;17.10;100942.00;;;;5008619;28;20195;-46
2023/03/29 00:17:31;;;;;;;1.57;1.40;;;16.20;59.90;17.10;100936.00;;;;5008679;28;20202;-47
2023/03/29 00:19:56;;;;;;;2.60;1.50;;;16.20;60.00;17.10;100944.00;;;;5008482;28;20659;-47
2023/03/29 00:22:22;;;;;;;1.60;1.50;;;16.20;60.00;17.10;100946.00;;;;5008250;28;20214;-46
2023/03/29 00:24:48;;;;;;;1.50;1.40;;;16.20;60.00;17.10;100937.00;;;;5008450;28;20188;-46
2023/03/29 00:27:15;;;;;;;1.50;1.40;;;16.20;60.00;17.10;100941.00;;;;5008616;28;20211;-46
2023/03/29 00:29:41;;;;;;;1.50;1.40;;;16.20;60.00;17.10;100945.00;;;;5013647;28;20653;-46
2023/03/29 00:32:06;;;;;;;1.20;1.20;;;16.20;60.10;17.10;100944.00;;;;5012212;28;20199;-47
2023/03/29 00:34:34;;;;;;;1.47;1.37;;;16.20;60.10;17.10;100930.00;;;;5009918;28;20190;-46
2023/03/29 00:37:02;;;;;;;1.60;1.50;;;16.10;60.00;17.10;100925.00;;;;5012711;28;20184;-46
2023/03/29 00:39:28;;;;;;;2.13;1.47;;;16.20;60.10;17.10;100926.00;;;;5012511;28;20403;-46
2023/03/29 00:41:54;;;;;;;1.43;1.33;;;16.20;60.10;17.10;100926.00;;;;5011191;28;20282;-46
2023/03/29 00:44:55;;;;;;;1.70;1.60;;;16.20;60.10;17.10;100912.00;;;;5012262;28;20210;-46
2023/03/29 00:47:36;;;;;;;2.27;1.67;;;16.20;60.00;17.10;100914.00;;;;5012260;28;20204;-46
2023/03/29 00:50:15;;;;;;;1.60;1.50;;;16.20;60.10;17.10;100911.00;;;;5012016;28;20171;-46
2023/03/29 00:52:42;;;;;;;1.50;1.40;;;16.20;60.00;17.10;100916.00;;;;5011052;28;20278;-47
2023/03/29 00:55:13;;;;;;;1.50;1.40;;;16.20;60.00;17.10;100899.00;;;;5011289;28;20218;-46
2023/03/29 00:57:39;;;;;;;1.50;1.40;;;16.20;60.00;17.10;100899.00;;;;5011165;28;20175;-46
2023/03/29 01:00:08;;;;;;;1.50;1.40;;;16.10;59.90;17.10;100904.00;;;;5010867;28;20182;-47
2023/03/29 01:02:38;;;;;;;1.40;1.30;;;16.20;60.00;17.10;100907.00;;;;5011794;28;20195;-46
2023/03/29 01:05:18;;;;;;;1.37;1.30;;;16.20;60.00;17.10;100901.00;;;;5010604;28;20753;-46
2023/03/29 01:07:56;;;;;;;1.60;1.50;;;16.20;60.00;17.10;100901.00;;;;5010714;28;20591;-48
2023/03/29 01:10:40;;;;;;;1.70;1.60;;;16.20;60.00;17.10;100890.00;;;;5010681;28;20179;-45
2023/03/29 01:13:12;;;;;;;1.27;1.27;;;16.10;59.90;17.10;100882.00;;;;5010490;28;20569;-47
2023/03/29 01:15:40;;;;;;;1.40;1.30;;;16.20;60.00;17.10;100891.00;;;;5004090;28;20180;-46
2023/03/29 01:18:06;;;;;;;1.70;1.60;;;16.20;60.00;17.10;100887.00;;;;4991441;28;20661;-45
2023/03/29 01:21:09;;;;;;;1.60;1.50;;;16.20;60.00;17.10;100888.00;;;;5009795;28;20180;-46
2023/03/29 01:23:52;;;;;;;1.60;1.50;;;16.20;60.30;17.10;100884.00;;;;5009322;28;20245;-46
2023/03/29 01:26:34;;;;;;;1.90;1.30;;;16.20;60.30;17.10;100883.00;;;;5011294;28;20239;-47
2023/03/29 01:29:06;;;;;;;1.57;1.47;;;16.20;60.40;17.10;100875.00;;;;5009783;28;20230;-47
2023/03/29 01:31:36;;;;;;;1.60;1.50;;;16.20;60.40;17.10;100874.00;;;;5010731;28;20241;-47
2023/03/29 01:34:09;;;;;;;1.60;1.50;;;16.10;60.30;17.10;100876.00;;;;5009278;28;20176;-47
2023/03/29 01:36:49;;;;;;;1.60;1.50;;;16.20;60.50;17.10;100873.00;;;;5001828;28;20168;-45
2023/03/29 01:39:15;;;;;;;1.40;1.30;;;16.10;60.40;17.10;100862.00;;;;5009653;28;20757;-46
2023/03/29 01:41:47;;;;;;;1.53;1.43;;;16.20;60.50;17.10;100867.00;;;;5008104;28;20223;-46
2023/03/29 01:44:26;;;;;;;1.70;1.60;;;16.10;60.40;17.10;100845.00;;;;5008144;28;20199;-45
2023/03/29 01:46:57;;;;;;;1.60;1.50;;;16.10;60.40;17.10;100855.00;;;;5007954;28;20218;-45
2023/03/29 01:49:49;;;;;;;1.50;1.40;;;16.10;60.40;17.00;100848.00;;;;5008547;28;20221;-46
2023/03/29 01:52:19;;;;;;;1.67;1.57;;;16.20;60.60;17.00;100847.00;;;;5009426;28;20207;-46
2023/03/29 01:54:54;;;;;;;1.27;1.27;;;16.10;60.40;17.00;100847.00;;;;5009060;28;20816;-45
2023/03/29 01:57:23;;;;;;;1.50;1.40;;;16.10;60.40;17.00;100839.00;;;;5009176;28;20271;-46
2023/03/29 01:59:49;;;;;;;1.47;1.37;;;16.10;60.50;17.00;100838.00;;;;5009731;28;20523;-45
2023/03/29 02:02:15;;;;;;;1.40;1.30;;;16.10;60.40;17.00;100829.00;;;;5009281;28;20203;-46
2023/03/29 02:04:50;;;;;;;1.40;1.30;;;16.10;60.40;17.00;100831.00;;;;5009727;28;20180;-46
2023/03/29 02:07:19;;;;;;;1.30;1.30;;;16.10;60.40;16.80;100834.00;;;;5009402;28;20243;-46
2023/03/29 02:09:44;;;;;;;1.50;1.40;;;16.10;60.30;17.00;100826.00;;;;5009562;28;20233;-47
2023/03/29 02:12:10;;;;;;;1.70;1.60;;;16.10;60.30;17.10;100825.00;;;;5009302;28;20203;-45
2023/03/29 02:14:37;;;;;;;1.30;1.10;;;16.10;60.30;17.00;100831.00;;;;5009624;28;20172;-46
2023/03/29 02:17:17;;;;;;;1.40;1.40;;;16.10;60.30;17.00;100828.00;;;;5010605;28;20179;-47
2023/03/29 02:19:44;;;;;;;1.20;1.17;;;16.10;60.30;17.10;100822.00;;;;5009563;28;20201;-46
2023/03/29 02:22:10;;;;;;;1.17;1.17;;;16.10;60.20;17.00;100812.00;;;;5010422;28;20203;-45
2023/03/29 02:24:36;;;;;;;1.30;1.30;;;16.10;60.20;17.00;100816.00;;;;5009361;28;20709;-46
2023/03/29 02:27:02;;;;;;;1.57;1.47;;;16.10;60.20;17.10;100815.00;;;;5009230;28;20246;-46
2023/03/29 02:29:28;;;;;;;1.50;1.40;;;16.10;60.20;17.00;100819.00;;;;5009186;28;20562;-46
2023/03/29 02:32:07;;;;;;;1.63;1.53;;;16.20;60.40;17.00;100813.00;;;;5011800;28;20198;-46
2023/03/29 02:34:42;;;;;;;1.90;1.67;;;16.20;60.30;17.00;100817.00;;;;5013872;28;20192;-47
2023/03/29 02:37:11;;;;;;;1.57;1.47;;;16.10;60.30;17.00;100819.00;;;;5014803;28;20236;-46
2023/03/29 02:39:37;;;;;;;1.50;1.40;;;16.10;60.30;17.10;100818.00;;;;5012558;28;20740;-47
2023/03/29 02:42:03;;;;;;;1.60;1.50;;;16.10;60.30;17.00;100805.00;;;;5009638;28;20222;-47
2023/03/29 02:44:31;;;;;;;1.30;1.30;;;16.10;60.30;17.00;100806.00;;;;5009201;28;20234;-46
2023/03/29 02:47:05;;;;;;;1.30;1.20;;;16.10;60.30;17.00;100810.00;;;;5008834;28;20253;-45
2023/03/29 02:49:31;;;;;;;1.53;1.43;;;16.10;60.40;17.00;100809.00;;;;5008810;28;20183;-45
2023/03/29 02:51:58;;;;;;;1.50;1.40;;;16.10;60.40;17.00;100804.00;;;;5008953;28;20200;-46
2023/03/29 02:54:24;;;;;;;1.50;1.40;;;16.10;60.50;17.00;100808.00;;;;5008839;28;20188;-45
2023/03/29 02:57:01;;;;;;;1.70;1.60;;;16.10;60.40;17.00;100805.00;;;;5007966;28;20211;-45
2023/03/29 02:59:28;;;;;;;1.50;1.40;;;16.10;60.40;17.00;100809.00;;;;5008793;28;20191;-46
2023/03/29 03:01:54;;;;;;;1.87;1.67;;;16.10;60.40;17.00;100814.00;;;;5009859;28;20215;-45
2023/03/29 03:04:20;;;;;;;1.50;1.40;;;16.10;60.50;17.00;100819.00;;;;5009636;28;20192;-46
2023/03/29 03:06:47;;;;;;;1.40;1.30;;;16.10;60.50;17.00;100800.00;;;;5009648;28;20248;-46
2023/03/29 03:09:13;;;;;;;1.40;1.30;;;16.10;60.50;17.00;100807.00;;;;5009554;28;20171;-45
2023/03/29 03:11:39;;;;;;;1.50;1.40;;;16.10;60.50;17.00;100812.00;;;;5009494;28;20199;-46
2023/03/29 03:14:06;;;;;;;1.53;1.40;;;16.10;60.40;17.00;100815.00;;;;5009516;28;20225;-46
2023/03/29 03:16:32;;;;;;;1.40;1.30;;;16.10;60.40;17.00;100812.00;;;;5009764;28;20342;-46
2023/03/29 03:18:58;;;;;;;1.67;1.57;;;16.10;60.40;17.00;100796.00;;;;5009452;28;20687;-46
2023/03/29 03:21:24;;;;;;;1.50;1.40;;;16.10;60.40;17.00;100801.00;;;;5009439;28;20223;-46
2023/03/29 03:23:50;;;;;;;2.13;1.60;;;16.10;60.40;17.00;100798.00;;;;5008967;28;20192;-47
2023/03/29 03:26:17;;;;;;;2.10;1.50;;;16.20;60.40;17.00;100805.00;;;;5009304;28;20269;-46
2023/03/29 03:28:44;;;;;;;2.43;1.50;;;16.10;60.40;17.00;100804.00;;;;5009493;28;20258;-46
2023/03/29 03:31:10;;;;;;;1.57;1.47;;;16.10;60.40;17.00;100808.00;;;;5008901;28;20200;-46
2023/03/29 03:33:35;;;;;;;1.73;1.63;;;16.10;60.40;17.00;100807.00;;;;5009230;28;20469;-45
2023/03/29 03:36:03;;;;;;;2.53;1.57;;;16.10;60.70;17.00;100796.00;;;;5004881;28;20184;-46
2023/03/29 03:38:29;;;;;;;2.10;1.40;;;16.10;60.80;17.00;100799.00;;;;5009333;28;20619;-46
2023/03/29 03:40:55;;;;;;;1.80;1.50;;;16.10;60.80;17.00;100799.00;;;;5009528;28;20202;-45
2023/03/29 03:43:21;;;;;;;2.90;1.50;;;16.10;60.80;17.00;100793.00;;;;5009283;28;20182;-46
2023/03/29 03:45:47;;;;;;;1.90;1.50;;;16.10;60.80;17.00;100794.00;;;;5009803;28;20211;-47
2023/03/29 03:48:13;;;;;;;2.27;1.60;;;16.10;60.70;17.00;100787.00;;;;5010301;28;20171;-45
2023/03/29 03:50:39;;;;;;;3.00;1.73;;;16.10;60.60;17.00;100780.00;;;;5010172;28;20171;-46
2023/03/29 03:53:05;;;;;;;4.10;1.43;;;16.10;60.50;17.00;100780.00;;;;5009812;28;20271;-46
2023/03/29 03:55:32;;;;;;;3.60;1.80;;;16.10;60.40;17.00;100759.00;;;;5008989;28;20262;-46
2023/03/29 03:57:58;;;;;;;2.37;1.60;;;16.10;60.30;17.00;100780.00;;;;5010561;28;20543;-46
2023/03/29 04:00:24;;;;;;;3.57;1.70;;;16.10;60.30;17.00;100778.00;;;;5010375;28;20179;-46
2023/03/29 04:02:53;;;;;;;2.87;1.60;;;16.10;60.20;17.00;100778.00;;;;5010887;28;20403;-47
2023/03/29 04:05:18;;;;;;;3.67;1.67;;;16.10;60.10;17.00;100772.00;;;;5009731;28;20642;-46
2023/03/29 04:07:44;;;;;;;1.70;1.60;;;16.10;60.10;17.00;100777.00;;;;5011450;28;20178;-47
2023/03/29 04:10:10;;;;;;;2.27;1.67;;;16.10;59.90;17.00;100770.00;;;;5008705;28;20171;-45
2023/03/29 04:12:36;;;;;;;3.10;1.80;;;16.00;59.80;16.90;100769.00;;;;5009671;28;20195;-45
2023/03/29 04:15:02;;;;;;;1.70;1.60;;;16.00;59.80;16.90;100776.00;;;;5010020;28;20650;-45
2023/03/29 04:17:28;;;;;;;2.23;1.50;;;16.00;59.80;16.90;100767.00;;;;5010140;28;20206;-46
2023/03/29 04:19:53;;;;;;;2.23;1.60;;;16.00;59.80;16.90;100770.00;;;;5009985;28;20226;-46
2023/03/29 04:22:19;;;;;;;1.87;1.60;;;16.00;59.80;16.90;100771.00;;;;5009701;28;20218;-46
2023/03/29 04:24:45;;;;;;;2.67;1.70;;;16.00;59.80;16.90;100766.00;;;;5009688;28;20600;-47
2023/03/29 04:27:11;;;;;;;2.00;1.70;;;16.00;59.80;16.90;100774.00;;;;5009652;28;20210;-46
2023/03/29 04:29:36;;;;;;;2.60;1.87;;;16.00;59.80;16.90;100779.00;;;;5009793;28;20176;-46
2023/03/29 04:32:02;;;;;;;2.03;1.60;;;15.90;59.60;16.80;100778.00;;;;5007883;28;20199;-46
2023/03/29 04:34:28;;;;;;;2.07;1.80;;;15.90;59.50;16.80;100779.00;;;;5001510;28;20238;-46
2023/03/29 04:36:54;;;;;;;3.97;1.80;;;15.90;59.60;16.80;100779.00;;;;5009247;28;20179;-47
2023/03/29 04:39:20;;;;;;;3.13;1.67;;;15.90;59.70;16.80;100762.00;;;;5009239;28;20246;-47
2023/03/29 04:41:46;;;;;;;3.67;1.70;;;15.90;59.70;16.80;100769.00;;;;5009640;28;20214;-47
2023/03/29 04:44:13;;;;;;;2.00;1.60;;;15.90;59.70;16.80;100774.00;;;;5009043;28;20180;-47
2023/03/29 04:46:39;;;;;;;2.20;1.70;;;15.90;59.70;16.80;100769.00;;;;5009291;28;20253;-46
2023/03/29 04:49:05;;;;;;;3.73;1.80;;;15.90;59.70;16.80;100766.00;;;;5007237;28;20254;-46
2023/03/29 04:51:32;;;;;;;4.50;1.90;;;15.80;59.60;16.80;100760.00;;;;5008896;28;20204;-47
2023/03/29 04:53:58;;;;;;;2.80;1.80;;;15.90;59.70;16.80;100756.00;;;;5008778;28;20180;-47
2023/03/29 04:56:23;;;;;;;2.97;1.80;;;15.80;59.60;16.70;100757.00;;;;5008898;28;20187;-47
2023/03/29 04:58:49;;;;;;;4.03;2.00;;;15.80;59.60;16.70;100763.00;;;;5007979;28;20184;-47
2023/03/29 05:01:16;;;;;;;6.20;2.27;;;15.80;59.60;16.70;100752.00;;;;5008382;28;20674;-46
2023/03/29 05:03:42;;;;;;;5.30;2.00;;;15.80;59.60;16.70;100754.00;;;;5008370;28;20183;-46
2023/03/29 05:06:10;;;;;;;4.40;2.13;;;15.70;59.50;16.70;100752.00;;;;5002370;28;20200;-46
2023/03/29 05:08:38;;;;;;;2.03;1.83;;;15.70;59.50;16.70;100754.00;;;;5003044;28;20174;-45
2023/03/29 05:11:06;;;;;;;3.03;2.10;;;15.70;59.50;16.70;100758.00;;;;5008231;28;20222;-47
2023/03/29 05:13:32;;;;;;;2.10;1.90;;;15.70;59.50;16.70;100749.00;;;;5008762;28;20184;-47
2023/03/29 05:16:00;;;;;;;2.87;1.93;;;15.70;59.50;16.60;100745.00;;;;5007119;28;20607;-47
2023/03/29 05:18:27;;;;;;;2.20;2.00;;;15.70;59.50;16.60;100756.00;;;;5008890;28;20581;-47
2023/03/29 05:20:53;;;;;;;4.60;2.17;;;15.70;59.60;16.60;100747.00;;;;5006770;28;20203;-46
2023/03/29 05:23:19;;;;;;;4.33;2.00;;;15.70;59.60;16.60;100747.00;;;;5010211;28;20207;-47
2023/03/29 05:25:47;;;;;;;2.20;1.80;;;15.70;59.70;16.60;100742.00;;;;5011811;28;20207;-47
2023/03/29 05:28:13;;;;;;;2.00;1.90;;;15.70;59.90;16.60;100740.00;;;;5012518;28;20183;-47
2023/03/29 05:30:39;;;;;;;2.83;2.10;;;15.70;60.00;16.60;100730.00;;;;5013251;28;20186;-46
2023/03/29 05:33:05;;;;;;;2.63;1.90;;;15.70;60.10;16.60;100723.00;;;;5012502;28;20176;-47
2023/03/29 05:35:32;;;;;;;3.17;1.97;;;15.70;60.00;16.50;100716.00;;;;5012432;28;20180;-47
2023/03/29 05:37:59;;;;;;;2.70;1.80;;;15.60;59.90;16.60;100726.00;;;;5012609;28;20180;-47
2023/03/29 05:40:25;;;;;;;3.83;1.93;;;15.60;60.00;16.50;100729.00;;;;5012001;28;20557;-47
2023/03/29 05:42:51;;;;;;;2.97;1.90;;;15.60;60.00;16.50;100730.00;;;;5011742;28;20248;-46
2023/03/29 05:45:17;;;;;;;2.10;1.90;;;15.60;60.10;16.50;100733.00;;;;5012122;28;20590;-46
2023/03/29 05:47:43;;;;;;;3.50;2.00;;;15.60;60.10;16.50;100720.00;;;;5012052;28;20271;-45
2023/03/29 05:50:10;;;;;;;3.07;1.90;;;15.60;60.10;16.50;100721.00;;;;5011757;28;20236;-46
2023/03/29 05:52:36;;;;;;;7.73;2.00;;;15.60;60.20;16.50;100726.00;;;;5026363;28;20195;-45
2023/03/29 05:55:06;;;;;;;6.23;2.10;;;15.60;60.20;16.50;100719.00;;;;5011612;28;20172;-46
2023/03/29 05:57:36;;;;;;;5.80;2.07;;;15.60;60.20;16.50;100713.00;;;;5010932;28;20742;-47
2023/03/29 06:00:16;;;;;;;7.90;2.50;;;15.60;60.30;16.50;100711.00;;;;5011697;28;20184;-46
2023/03/29 06:02:42;;;;;;;8.07;2.13;;;15.50;60.20;16.40;100723.00;;;;5009617;28;20380;-46
2023/03/29 06:05:08;;;;;;;4.90;2.10;;;15.50;60.20;16.40;100714.00;;;;5010537;28;20183;-46
2023/03/29 06:07:34;;;;;;;6.27;2.10;;;15.50;60.20;16.40;100709.00;;;;5011581;28;20582;-47
2023/03/29 06:10:01;;;;;;;8.83;2.50;;;15.50;60.30;16.40;100729.00;;;;5010533;28;20350;-47
2023/03/29 06:12:27;;;;;;;11.30;2.17;;;15.50;60.30;16.40;100731.00;;;;5010937;28;20199;-46
2023/03/29 06:14:53;;;;;;;6.17;2.00;;;15.50;60.30;16.40;100735.00;;;;5010821;28;20681;-47
2023/03/29 06:17:19;;;;;;;7.57;1.80;;;15.50;60.30;16.40;100741.00;;;;5010957;28;20207;-46
2023/03/29 06:19:45;;;;;;;7.07;2.30;;;15.50;60.30;16.40;100731.00;;;;5011255;28;20220;-47
2023/03/29 06:22:10;;;;;;;3.53;1.90;;;15.50;60.30;16.40;100734.00;;;;5010775;28;20261;-47
2023/03/29 06:24:36;;;;;;;6.00;2.10;;;15.50;60.30;16.40;100734.00;;;;5010875;28;20198;-46
2023/03/29 06:27:02;;;;;;;4.97;2.13;;;15.40;60.10;16.30;100738.00;;;;5011610;28;20854;-46
2023/03/29 06:29:28;;;;;;;3.77;2.10;;;15.40;60.10;16.30;100728.00;;;;5011250;28;20701;-47
2023/03/29 06:31:55;;;;;;;5.97;2.10;;;15.40;60.10;16.30;100724.00;;;;5010008;28;20191;-47
2023/03/29 06:34:21;;;;;;;3.80;2.23;;;15.40;60.30;16.30;100730.00;;;;5010548;28;20700;-46
2023/03/29 06:36:49;;;;;;;5.87;1.90;;;15.40;60.20;16.30;100740.00;;;;5010906;28;20183;-48
2023/03/29 06:39:15;;;;;;;3.27;1.80;;;15.40;60.20;16.30;100743.00;;;;5010994;28;20333;-47
2023/03/29 06:41:41;;;;;;;3.63;1.90;;;15.40;60.30;16.30;100743.00;;;;5010858;28;20270;-47
2023/03/29 06:44:07;;;;;;;2.80;2.27;;;15.40;60.30;16.30;100739.00;;;;5011862;28;20179;-46
2023/03/29 06:46:33;;;;;;;3.03;1.90;;;15.40;60.40;16.30;100741.00;;;;5014703;28;20562;-47
2023/03/29 06:48:59;;;;;;;2.77;1.97;;;15.30;60.30;16.20;100745.00;;;;5012684;28;20180;-46
2023/03/29 06:51:26;;;;;;;3.33;2.10;;;15.30;60.30;16.20;100739.00;;;;5015513;28;20273;-47
2023/03/29 06:53:52;;;;;;;2.73;1.80;;;15.30;60.30;16.20;100745.00;;;;5010647;28;20171;-47
2023/03/29 06:56:17;;;;;;;3.90;2.03;;;15.30;60.40;16.20;100753.00;;;;5010544;28;20734;-47
2023/03/29 06:58:43;;;;;;;2.37;2.10;;;15.30;60.30;16.20;100740.00;;;;5009771;28;20171;-47
2023/03/29 07:01:10;;;;;;;2.53;1.80;;;15.30;60.40;16.20;100739.00;;;;5010598;28;20211;-48
2023/03/29 07:03:38;;;;;;;1.80;1.67;;;15.30;60.40;16.20;100747.00;;;;5010309;28;20254;-46
2023/03/29 07:06:08;;;;;;;2.80;1.73;;;15.30;60.40;16.20;100740.00;;;;5010268;28;20212;-47
2023/03/29 07:08:42;;;;;;;2.77;1.87;;;15.30;60.50;16.20;100746.00;;;;5010758;28;20175;-46
2023/03/29 07:11:12;;;;;;;2.00;1.80;;;15.20;60.40;16.20;100743.00;;;;5010517;28;20191;-48
2023/03/29 07:13:41;;;;;;;1.70;1.60;;;15.30;60.60;16.10;100744.00;;;;5010117;28;20541;-46
2023/03/29 07:16:13;;;;;;;2.10;1.90;;;15.20;60.40;16.10;100749.00;;;;5010119;28;20275;-46
2023/03/29 07:18:42;;;;;;;3.23;1.80;;;15.20;60.40;16.10;100750.00;;;;5001832;28;20184;-46
2023/03/29 07:21:10;;;;;;;2.93;1.70;;;15.20;60.40;16.10;100743.00;;;;5008331;28;20246;-47
2023/03/29 07:23:36;;;;;;;1.90;1.70;;;15.20;60.50;16.10;100689.00;;;;5008071;28;20191;-47
2023/03/29 07:26:03;;;;;;;2.27;1.70;;;15.20;60.50;16.10;100749.00;;;;5010326;28;20203;-47
2023/03/29 07:28:28;;;;;;;2.33;1.70;;;15.20;60.50;16.20;100753.00;;;;5005621;28;20175;-47
2023/03/29 07:31:09;;;;;;;2.73;2.00;;;15.20;60.60;16.20;100759.00;;;;5012400;28;20191;-46
2023/03/29 07:33:35;;;;;;;2.93;1.60;;;15.20;60.70;16.20;100754.00;;;;5008154;28;20598;-47
2023/03/29 07:36:02;;;;;;;3.80;1.70;;;15.20;60.80;16.20;100746.00;;;;5010040;28;20172;-46
2023/03/29 07:38:28;;;;;;;2.33;1.90;;;15.20;60.80;16.10;100747.00;;;;5010359;28;20381;-46
2023/03/29 07:40:53;;;;;;;4.73;1.90;;;15.20;61.00;16.20;100749.00;;;;5009813;28;20274;-46
2023/03/29 07:43:20;;;;;;;3.40;1.87;;;15.30;61.10;16.20;100744.00;;;;5009662;28;20195;-46
2023/03/29 07:45:45;;;;;;;1.70;1.60;;;15.30;61.10;16.20;100747.00;;;;5010411;28;20333;-46
2023/03/29 07:48:12;;;;;;;2.13;1.90;;;15.40;61.20;16.30;100739.00;;;;5009789;28;20251;-46
2023/03/29 07:50:37;;;;;;;2.07;1.80;;;15.40;61.20;16.30;100744.00;;;;5009887;28;20199;-46
2023/03/29 07:53:03;;;;;;;1.70;1.60;;;15.40;61.10;16.40;100747.00;;;;5009532;28;20275;-45
2023/03/29 07:55:29;;;;;;;3.67;1.90;;;15.50;61.10;16.40;100732.00;;;;5010164;28;20199;-45
2023/03/29 07:57:55;;;;;;;1.70;1.60;;;15.60;61.10;16.50;100754.00;;;;5009480;28;20199;-45
2023/03/29 08:00:23;;;;;;;2.30;1.87;;;15.70;61.10;16.60;100767.00;;;;5009773;28;20610;-45
2023/03/29 08:02:51;;;;;;;2.40;1.73;;;15.80;61.20;16.70;100710.00;;;;5009373;28;20600;-46
2023/03/29 08:05:17;;;;;;;1.70;1.60;;;15.90;61.10;16.70;100770.00;;;;5009601;28;20230;-47
2023/03/29 08:07:43;;;;;;;3.30;1.90;;;16.00;61.00;16.80;100773.00;;;;5009458;28;20196;-46
2023/03/29 08:10:17;;;;;;;2.03;1.60;;;16.00;60.90;16.90;100761.00;;;;5009704;28;20171;-46
2023/03/29 08:12:44;;;;;;;2.90;1.80;;;16.20;61.00;17.00;100761.00;;;;5011399;28;20187;-46
2023/03/29 08:15:10;;;;;;;2.50;1.80;;;16.20;60.90;17.10;100755.00;;;;5010711;28;20669;-46
2023/03/29 08:17:36;;;;;;;5.20;1.80;;;16.40;60.90;17.30;100749.00;;;;5009129;28;20180;-46
2023/03/29 08:20:04;;;;;;;2.10;1.90;;;16.40;60.80;17.30;100747.00;;;;5009712;28;20179;-46
2023/03/29 08:22:32;;;;;;;1.67;1.40;;;16.50;60.70;17.40;100755.00;;;;5008434;28;20247;-46
2023/03/29 08:24:57;;;;;;;2.07;1.70;;;16.60;60.90;17.50;100745.00;;;;5009758;28;20193;-45
2023/03/29 08:27:23;;;;;;;2.07;1.47;;;16.70;60.80;17.60;100754.00;;;;5009122;28;20211;-45
2023/03/29 08:29:49;;;;;;;4.80;1.60;;;16.70;60.60;17.70;100747.00;;;;5009323;28;20164;-45
2023/03/29 08:32:15;;;;;;;1.80;1.50;;;16.90;60.80;17.80;100746.00;;;;5009682;28;20693;-46
2023/03/29 08:34:40;;;;;;;2.40;2.10;;;16.90;60.70;17.80;100750.00;;;;5009883;28;20202;-46
2023/03/29 08:37:07;;;;;;;5.37;1.80;;;17.00;60.80;17.90;100755.00;;;;5009976;28;20187;-46
2023/03/29 08:39:33;;;;;;;3.40;1.63;;;17.10;60.90;18.00;100757.00;;;;5009827;28;20184;-46
2023/03/29 08:42:54;;;;;;;4.37;1.70;;;17.10;60.90;18.10;100753.00;;;;5009671;28;20618;-45
2023/03/29 08:45:36;;;;;;;3.40;1.80;;;17.20;60.90;18.20;100744.00;;;;5007809;28;20195;-46
2023/03/29 08:48:23;;;;;;;3.73;1.70;;;17.30;60.70;18.20;100751.00;;;;5008461;28;20183;-46
2023/03/29 08:51:04;;;;;;;2.20;1.60;;;17.30;60.60;18.30;100741.00;;;;5008266;28;20194;-46
2023/03/29 08:53:42;;;;;;;1.77;1.67;;;17.40;60.60;18.30;100745.00;;;;5008219;28;20176;-46
2023/03/29 08:56:12;;;;;;;2.03;1.53;;;17.40;60.50;18.30;100735.00;;;;5010283;28;20264;-46
2023/03/29 08:58:38;;;;;;;2.00;1.60;;;17.50;60.60;18.40;100736.00;;;;5011842;28;20226;-46
2023/03/29 09:01:07;;;;;;;2.27;1.90;;;17.50;60.50;18.40;100740.00;;;;5011962;28;20199;-46
2023/03/29 09:03:47;;;;;;;2.27;1.70;;;17.50;60.50;18.40;100739.00;;;;5012087;28;20291;-46
2023/03/29 09:06:13;;;;;;;2.60;1.70;;;17.50;60.50;18.50;100742.00;;;;5011846;28;20199;-45
2023/03/29 09:08:50;;;;;;;2.10;1.90;;;17.60;60.50;18.50;100737.00;;;;5012018;28;20245;-46
2023/03/29 09:11:56;;;;;;;2.93;1.60;;;17.50;60.40;18.50;100730.00;;;;5011862;28;20292;-46
2023/03/29 09:15:03;;;;;;;1.90;1.80;;;17.50;60.40;18.50;100737.00;;;;5011923;28;20280;-46
2023/03/29 09:17:51;;;;;;;2.00;1.80;;;17.60;60.50;18.50;100738.00;;;;5012061;28;20173;-46
2023/03/29 09:20:37;;;;;;;1.77;1.67;;;17.60;60.50;18.50;100740.00;;;;5011907;28;20207;-45
2023/03/29 09:23:37;;;;;;;2.27;1.77;;;17.50;60.40;18.50;100746.00;;;;5011578;28;20201;-45
2023/03/29 09:26:38;;;;;;;1.87;1.70;;;17.60;60.50;18.50;100752.00;;;;5011847;28;20217;-45
2023/03/29 09:29:31;;;;;;;1.87;1.50;;;17.50;60.40;18.50;100751.00;;;;5012670;28;20183;-46
2023/03/29 09:31:57;;;;;;;2.83;1.70;;;17.50;60.40;18.50;100741.00;;;;5011542;28;20191;-46
2023/03/29 09:34:30;;;;;;;1.70;1.40;;;17.50;60.40;18.20;100740.00;;;;5012362;28;20177;-46
2023/03/29 09:37:14;;;;;;;1.77;1.67;;;17.50;60.40;18.50;100741.00;;;;5011649;28;20168;-46
2023/03/29 09:39:40;;;;;;;1.70;1.60;;;17.50;60.50;18.50;100741.00;;;;5011535;28;20181;-48
2023/03/29 09:42:07;;;;;;;1.73;1.63;;;17.50;60.50;18.50;100727.00;;;;5011779;28;20248;-47
2023/03/29 09:44:42;;;;;;;1.70;1.60;;;17.50;60.50;18.40;100730.00;;;;5010520;28;20223;-46
2023/03/29 09:47:26;;;;;;;2.00;1.80;;;17.60;60.70;18.50;100735.00;;;;5011567;28;20207;-46
2023/03/29 09:50:01;;;;;;;1.70;1.60;;;17.50;60.60;18.40;100731.00;;;;5010687;28;20170;-45
2023/03/29 09:52:26;;;;;;;2.53;1.70;;;17.50;60.50;18.40;100738.00;;;;5012386;28;20595;-47
2023/03/29 09:54:52;;;;;;;2.23;1.60;;;17.50;60.50;18.50;100743.00;;;;5011377;28;20246;-48
2023/03/29 09:57:18;;;;;;;1.60;1.50;;;17.50;60.50;18.40;100723.00;;;;5011016;28;20181;-46
2023/03/29 09:59:45;;;;;;;1.80;1.70;;;17.50;60.60;18.40;100731.00;;;;5011170;28;20189;-48
2023/03/29 10:02:12;;;;;;;2.03;1.80;;;17.50;60.60;18.40;100725.00;;;;5011048;28;20711;-46
2023/03/29 10:04:40;;;;;;;1.97;1.60;;;17.50;60.70;18.40;100717.00;;;;5012292;28;20255;-45
2023/03/29 10:07:07;;;;;;;1.97;1.80;;;17.50;60.70;18.40;100721.00;;;;5011703;28;20203;-48
2023/03/29 10:09:33;;;;;;;1.80;1.70;;;17.50;60.60;18.40;100732.00;;;;5010795;28;20532;-46
2023/03/29 10:12:03;;;;;;;2.60;1.70;;;17.50;60.60;18.40;100729.00;;;;5010669;28;20272;-45
2023/03/29 10:14:35;;;;;;;2.00;1.70;;;17.40;60.50;18.40;100725.00;;;;5010767;28;20182;-46
2023/03/29 10:17:20;;;;;;;2.07;1.77;;;17.40;60.60;18.40;100714.00;;;;5011128;28;20181;-47
2023/03/29 10:19:51;;;;;;;1.90;1.70;;;17.40;60.50;18.40;100720.00;;;;5012221;28;20176;-45
2023/03/29 10:22:33;;;;;;;1.80;1.70;;;17.40;60.60;18.40;100711.00;;;;5011831;28;20600;-45
2023/03/29 10:24:59;;;;;;;1.77;1.67;;;17.40;60.60;18.30;100712.00;;;;5012178;28;20681;-46
2023/03/29 10:27:29;;;;;;;2.50;1.80;;;17.40;60.60;18.30;100712.00;;;;5011785;28;20279;-48
2023/03/29 10:29:55;;;;;;;1.67;1.57;;;17.40;60.70;18.40;100709.00;;;;5010057;28;20678;-44
2023/03/29 10:32:24;;;;;;;4.30;1.80;;;17.40;60.70;18.40;100730.00;;;;5003028;28;20211;-45
2023/03/29 10:34:49;;;;;;;2.73;1.90;;;17.40;60.90;18.40;100709.00;;;;5005781;28;20173;-45
2023/03/29 10:37:18;;;;;;;2.93;1.83;;;17.40;61.20;18.40;100717.00;;;;4994057;28;20668;-46
2023/03/29 10:39:44;;;;;;;3.43;1.70;;;17.50;61.30;18.40;100725.00;;;;5010186;28;20174;-46
2023/03/29 10:42:13;;;;;;;2.07;1.87;;;17.40;61.20;18.40;100709.00;;;;5008770;28;20204;-44
2023/03/29 10:44:39;;;;;;;2.93;1.70;;;17.40;61.20;18.40;100717.00;;;;5005322;28;20179;-46
2023/03/29 10:47:18;;;;;;;2.30;1.67;;;17.40;61.60;18.40;100724.00;;;;5002481;28;20229;-45
2023/03/29 10:49:55;;;;;;;4.30;2.00;;;17.40;61.70;18.40;100711.00;;;;5004550;28;20169;-47
2023/03/29 10:52:20;;;;;;;2.23;1.83;;;17.50;61.80;18.40;100721.00;;;;5005451;28;20201;-47
2023/03/29 10:54:48;;;;;;;3.60;1.90;;;17.40;61.70;18.40;100704.00;;;;5008600;28;20544;-46
2023/03/29 10:57:31;;;;;;;3.30;1.90;;;17.40;61.90;18.40;100694.00;;;;5013067;28;20264;-46